createdAt,value
2023-05-16T00:01:59.449Z,50.90
2023-05-16T00:04:26.605Z,50.79
2023-05-16T00:06:53.667Z,50.67
2023-05-16T00:09:20.883Z,50.99
2023-05-16T00:11:48.732Z,51.33
2023-05-16T00:14:15.880Z,51.64
2023-05-16T00:16:42.860Z,51.71
2023-05-16T00:19:12.681Z,51.88
2023-05-16T00:21:39.702Z,52.22
2023-05-16T08:13:49.175Z,31.93
2023-05-16T08:16:16.211Z,31.94
2023-05-16T08:18:43.446Z,31.91
2023-05-16T08:21:12.068Z,31.53
2023-05-16T08:23:39.232Z,30.99
2023-05-16T08:26:06.193Z,31.01
2023-05-16T08:28:33.132Z,31.10
2023-05-16T08:31:00.141Z,30.73
2023-05-16T08:33:26.848Z,30.02
2023-05-16T08:35:53.633Z,29.83
2023-05-16T08:38:21.376Z,29.69
2023-05-16T08:40:48.209Z,29.64
2023-05-16T08:43:15.277Z,29.24
2023-05-16T08:45:42.308Z,29.33
2023-05-16T08:48:10.651Z,29.35
2023-05-16T08:50:37.700Z,29.79
2023-05-16T08:53:06.852Z,29.53
2023-05-16T08:55:34.737Z,29.67
2023-05-16T08:58:01.874Z,29.87
2023-05-16T09:00:29.306Z,29.75
2023-05-16T09:02:56.987Z,29.23
2023-05-16T09:05:24.048Z,29.64
2023-05-16T09:07:51.207Z,29.61
2023-05-16T09:10:18.668Z,29.12
2023-05-16T09:12:45.646Z,29.27
2023-05-16T09:15:12.675Z,29.08
2023-05-16T09:17:43.115Z,29.06
2023-05-16T09:20:17.067Z,29.51
2023-05-16T09:22:54.853Z,29.62
2023-05-16T09:25:30.425Z,29.11
2023-05-16T09:28:00.773Z,28.61
2023-05-16T09:30:29.782Z,28.80
2023-05-16T09:32:57.034Z,28.49
2023-05-16T09:35:42.448Z,28.48
2023-05-16T09:38:22.080Z,29.04
2023-05-16T09:40:49.031Z,29.37
2023-05-16T09:43:16.789Z,29.71
2023-05-16T09:45:45.866Z,29.67
2023-05-16T09:48:13.869Z,29.81
2023-05-16T09:50:42.538Z,29.72
2023-05-16T09:53:09.722Z,29.57
2023-05-16T09:55:38.159Z,29.96
2023-05-16T09:58:05.473Z,29.98
2023-05-16T10:00:33.032Z,30.20
2023-05-16T10:03:03.494Z,30.04
2023-05-16T10:05:32.315Z,29.49
2023-05-16T10:07:59.302Z,30.38
2023-05-16T10:10:26.239Z,30.13
2023-05-16T10:12:53.103Z,29.74
2023-05-16T10:15:19.931Z,30.28
2023-05-16T10:17:50.843Z,30.12
2023-05-16T10:20:18.053Z,30.38
2023-05-16T10:22:45.143Z,30.54
2023-05-16T10:25:15.601Z,29.87
2023-05-16T10:27:42.991Z,29.18
2023-05-16T10:30:10.636Z,28.86
2023-05-16T10:32:39.476Z,29.00
2023-05-16T10:35:08.886Z,29.66
2023-05-16T10:37:36.386Z,29.87
2023-05-16T10:40:07.390Z,29.85
2023-05-16T10:42:35.339Z,29.67
2023-05-16T10:45:28.813Z,30.17
2023-05-16T10:47:59.883Z,30.53
2023-05-16T10:50:35.786Z,30.33
2023-05-16T10:53:18.383Z,30.39
2023-05-16T10:55:49.446Z,30.00
2023-05-16T10:58:39.202Z,30.14
2023-05-16T11:01:24.316Z,30.10
2023-05-16T11:04:01.987Z,29.85
2023-05-16T11:06:37.668Z,29.67
2023-05-16T11:09:06.502Z,30.57
2023-05-16T11:11:51.604Z,30.49
2023-05-16T11:14:33.951Z,30.45
2023-05-16T11:17:07.305Z,30.61
2023-05-16T11:19:51.118Z,30.87
2023-05-16T11:22:24.920Z,30.56
2023-05-16T11:25:12.211Z,30.52
2023-05-16T11:27:47.560Z,30.65
2023-05-16T11:30:17.067Z,30.76
2023-05-16T11:32:48.090Z,30.57
2023-05-16T11:35:16.236Z,30.77
2023-05-16T11:37:46.870Z,31.59
2023-05-16T11:40:14.094Z,31.85
2023-05-16T11:42:42.279Z,31.29
2023-05-16T11:45:17.138Z,31.18
2023-05-16T11:47:45.753Z,31.15
2023-05-16T11:50:14.282Z,31.26
2023-05-16T11:52:49.664Z,31.23
2023-05-16T11:55:28.225Z,31.38
2023-05-16T11:58:25.264Z,31.12
2023-05-16T12:00:53.000Z,31.38
2023-05-16T12:03:20.650Z,31.48
2023-05-16T12:05:54.638Z,31.74
2023-05-16T12:08:24.101Z,30.71
2023-05-16T12:10:51.893Z,29.66
2023-05-16T12:13:20.666Z,29.61
2023-05-16T12:15:47.861Z,29.98
2023-05-16T12:18:15.460Z,30.21
2023-05-16T12:20:47.154Z,30.27
2023-05-16T12:23:17.317Z,30.59
2023-05-16T12:25:48.658Z,30.97
2023-05-16T12:28:15.822Z,31.42
2023-05-16T12:30:44.105Z,31.74
2023-05-16T12:33:12.612Z,32.57
2023-05-16T12:35:49.097Z,32.92
2023-05-16T12:38:17.121Z,33.46
2023-05-16T12:40:44.165Z,33.92
2023-05-16T12:43:21.171Z,34.14
2023-05-16T12:45:52.229Z,34.27
2023-05-16T12:48:20.209Z,34.10
2023-05-16T12:50:48.370Z,31.82
2023-05-16T12:53:17.040Z,30.90
2023-05-16T12:55:44.397Z,31.09
2023-05-16T12:58:11.354Z,29.67
2023-05-16T13:00:38.548Z,30.12
2023-05-16T13:03:05.896Z,30.12
2023-05-16T13:05:34.010Z,30.11
2023-05-16T13:08:01.934Z,29.99
2023-05-16T13:10:29.421Z,30.37
2023-05-16T13:12:59.248Z,30.41
2023-05-16T13:15:26.917Z,30.72
2023-05-16T13:17:54.293Z,30.92
2023-05-16T13:20:21.510Z,31.05
2023-05-16T13:22:48.657Z,31.09
2023-05-16T13:25:15.942Z,31.18
2023-05-16T13:27:43.573Z,30.96
2023-05-16T13:30:11.250Z,31.12
2023-05-16T13:32:38.610Z,31.31
2023-05-16T13:35:06.387Z,31.33
2023-05-16T13:37:33.398Z,31.10
2023-05-16T13:40:00.410Z,31.02
2023-05-16T13:42:27.511Z,31.10
2023-05-16T13:44:54.279Z,31.42
2023-05-16T13:47:21.227Z,31.62
2023-05-16T13:49:48.526Z,31.79
2023-05-16T13:52:15.976Z,32.11
2023-05-16T13:54:42.903Z,32.37
2023-05-16T13:57:09.714Z,32.23
2023-05-16T14:02:06.617Z,32.85
2023-05-16T14:04:35.535Z,32.61
2023-05-16T14:07:02.786Z,32.37
2023-05-16T14:09:30.947Z,32.54
2023-05-16T14:11:58.001Z,32.61
2023-05-16T14:14:25.270Z,32.85
2023-05-16T14:16:52.513Z,32.23
2023-05-16T14:19:20.079Z,31.74
2023-05-16T14:21:47.851Z,31.57
2023-05-16T14:24:14.697Z,31.65
2023-05-16T14:26:41.760Z,31.84
2023-05-16T14:29:08.653Z,31.92
2023-05-16T14:31:37.043Z,32.14
2023-05-16T14:34:04.152Z,31.94
2023-05-16T14:36:31.297Z,31.99
2023-05-16T14:38:59.984Z,31.92
2023-05-16T14:41:28.061Z,31.78
2023-05-16T14:43:55.728Z,31.80
2023-05-16T14:46:22.547Z,32.14
2023-05-16T14:48:49.643Z,32.74
2023-05-16T14:51:16.800Z,33.10
2023-05-16T14:53:46.074Z,33.12
2023-05-16T14:56:14.486Z,33.42
2023-05-16T14:58:41.457Z,33.93
2023-05-16T15:01:08.687Z,34.41
2023-05-16T15:03:51.154Z,34.47
2023-05-16T15:06:23.595Z,34.31
2023-05-16T15:08:51.026Z,34.20
2023-05-16T15:11:18.082Z,34.12
2023-05-16T15:13:44.923Z,33.62
2023-05-16T15:16:12.114Z,33.58
2023-05-16T15:18:40.067Z,33.87
2023-05-16T15:21:06.961Z,34.05
2023-05-16T15:23:33.965Z,34.36
2023-05-16T15:26:00.800Z,34.82
2023-05-16T15:28:28.209Z,35.02
2023-05-16T15:30:55.088Z,35.36
2023-05-16T15:33:22.540Z,35.64
2023-05-16T15:35:49.327Z,35.94
2023-05-16T15:38:16.195Z,36.37
2023-05-16T15:40:43.225Z,36.60
2023-05-16T15:43:10.286Z,37.00
2023-05-16T15:45:39.407Z,37.28
2023-05-16T15:48:07.292Z,37.56
2023-05-16T15:50:34.869Z,37.85
2023-05-16T15:53:01.997Z,38.03
2023-05-16T15:55:29.317Z,38.18
2023-05-16T15:57:57.900Z,38.25
2023-05-16T16:00:25.892Z,38.41
2023-05-16T16:02:53.000Z,38.51
2023-05-16T16:05:22.965Z,38.55
2023-05-16T16:07:50.195Z,38.53
2023-05-16T16:10:17.030Z,38.59
2023-05-16T16:12:58.679Z,38.60
2023-05-16T16:15:29.623Z,38.94
2023-05-16T16:17:59.627Z,38.99
2023-05-16T16:20:26.586Z,39.17
2023-05-16T16:22:53.833Z,39.14
2023-05-16T16:25:21.082Z,39.29
2023-05-16T16:27:48.144Z,39.40
2023-05-16T16:30:15.108Z,39.60
2023-05-16T16:32:42.704Z,39.67
2023-05-16T16:35:09.702Z,39.79
2023-05-16T16:37:38.280Z,39.91
2023-05-16T16:40:09.164Z,39.95
2023-05-16T16:42:38.004Z,40.07
2023-05-16T16:45:06.086Z,40.01
2023-05-16T16:47:33.808Z,39.87
2023-05-16T16:50:00.817Z,39.75
2023-05-16T16:52:28.170Z,39.79
2023-05-16T16:54:55.439Z,39.72
2023-05-16T16:57:22.292Z,39.89
2023-05-16T16:59:50.071Z,39.94
2023-05-16T17:02:17.317Z,40.00
2023-05-16T17:04:44.744Z,40.06
2023-05-16T17:07:13.056Z,40.21
2023-05-16T17:09:41.848Z,40.27
2023-05-16T17:12:18.112Z,40.20
2023-05-16T17:14:50.798Z,40.48
2023-05-16T17:17:18.258Z,40.57
2023-05-16T17:19:46.340Z,40.41
2023-05-16T17:22:13.244Z,40.47
2023-05-16T17:24:40.443Z,40.41
2023-05-16T17:27:08.612Z,40.37
2023-05-16T17:29:36.913Z,40.36
2023-05-16T17:32:05.585Z,40.34
2023-05-16T17:34:32.845Z,40.30
2023-05-16T17:36:59.983Z,40.21
2023-05-16T17:39:27.059Z,40.11
2023-05-16T17:41:54.517Z,40.35
2023-05-16T17:44:21.342Z,40.38
2023-05-16T17:46:48.522Z,40.60
2023-05-16T17:49:16.111Z,40.76
2023-05-16T17:51:48.768Z,40.78
2023-05-16T17:54:17.866Z,40.90
2023-05-16T17:56:46.152Z,41.00
2023-05-16T17:59:13.200Z,41.09
2023-05-16T18:01:41.926Z,41.18
2023-05-16T18:04:08.939Z,41.24
2023-05-16T18:06:37.749Z,41.09
2023-05-16T18:09:10.006Z,41.14
2023-05-16T18:11:38.312Z,40.94
2023-05-16T18:14:05.351Z,40.72
2023-05-16T18:16:32.394Z,40.66
2023-05-16T18:21:44.518Z,40.56
2023-05-16T18:24:12.474Z,40.59
2023-05-16T18:26:39.456Z,40.46
2023-05-16T18:29:10.150Z,40.52
2023-05-16T18:31:41.950Z,40.63
2023-05-16T18:34:11.444Z,40.62
2023-05-16T18:36:40.500Z,40.62
2023-05-16T18:39:08.507Z,40.79
2023-05-16T18:41:36.077Z,40.74
2023-05-16T18:44:03.032Z,40.83
2023-05-16T18:46:30.184Z,40.93
2023-05-16T18:49:00.345Z,41.07
2023-05-16T18:51:28.040Z,41.16
2023-05-16T18:53:54.987Z,41.31
2023-05-16T18:56:23.062Z,41.33
2023-05-16T18:58:50.356Z,41.53
2023-05-16T19:01:21.501Z,41.63
2023-05-16T19:03:51.662Z,41.66
2023-05-16T19:06:20.319Z,41.71
2023-05-16T19:08:48.492Z,41.86
2023-05-16T19:11:17.216Z,41.89
2023-05-16T19:13:45.107Z,41.87
2023-05-16T19:16:12.015Z,41.93
2023-05-16T19:18:40.856Z,41.94
2023-05-16T19:21:12.560Z,42.02
2023-05-16T19:23:41.043Z,42.13
2023-05-16T19:26:07.944Z,42.04
2023-05-16T19:28:37.438Z,42.05
2023-05-16T19:31:04.288Z,42.14
2023-05-16T19:33:31.395Z,42.11
2023-05-16T19:35:58.657Z,42.12
2023-05-16T19:38:26.256Z,42.10
2023-05-16T19:40:53.310Z,42.21
2023-05-16T19:43:20.546Z,42.27
2023-05-16T19:45:47.558Z,42.40
2023-05-16T19:48:16.265Z,42.47
2023-05-16T19:50:43.427Z,42.70
2023-05-16T19:53:10.321Z,42.64
2023-05-16T19:55:38.110Z,42.74
2023-05-16T19:58:05.165Z,42.77
2023-05-16T20:00:32.092Z,42.80
2023-05-16T20:02:59.168Z,42.85
2023-05-16T20:05:26.531Z,42.98
2023-05-16T20:07:54.758Z,43.03
2023-05-16T20:10:22.156Z,43.01
2023-05-16T20:12:49.315Z,42.94
2023-05-16T20:15:16.632Z,42.99
2023-05-16T20:17:43.522Z,42.96
2023-05-16T20:20:10.742Z,43.03
2023-05-16T20:22:41.055Z,42.81
2023-05-16T20:25:08.766Z,42.78
2023-05-16T20:27:35.716Z,42.76
2023-05-16T20:30:03.597Z,42.73
2023-05-16T20:32:31.726Z,42.78
2023-05-16T20:34:58.693Z,42.69
2023-05-16T20:37:26.139Z,42.71
2023-05-16T20:39:53.936Z,42.61
2023-05-16T20:42:21.075Z,42.61
2023-05-16T20:44:48.041Z,42.63
2023-05-16T20:47:16.406Z,42.58
2023-05-16T20:49:43.375Z,42.64
2023-05-16T20:52:10.638Z,42.50
2023-05-16T20:54:37.574Z,42.56
2023-05-16T20:57:04.973Z,42.49
2023-05-16T20:59:32.218Z,42.55
2023-05-16T21:01:59.850Z,42.47
2023-05-16T21:04:26.761Z,42.62
2023-05-16T21:06:53.676Z,42.45
2023-05-16T21:09:20.481Z,42.52
2023-05-16T21:11:48.065Z,42.52
2023-05-16T21:14:14.931Z,42.52
2023-05-16T21:16:41.795Z,42.57
2023-05-16T21:19:08.927Z,42.66
2023-05-16T21:21:36.303Z,42.70
2023-05-16T21:24:03.949Z,42.76
2023-05-16T21:26:31.511Z,42.96
2023-05-16T21:28:58.462Z,42.94
2023-05-16T21:31:25.714Z,43.10
2023-05-16T21:33:52.770Z,43.21
2023-05-16T21:36:20.472Z,43.34
2023-05-16T21:38:47.543Z,43.49
2023-05-16T21:41:14.602Z,43.59
2023-05-16T21:43:41.539Z,43.75
2023-05-16T21:46:08.483Z,43.92
2023-05-16T21:48:35.583Z,44.35
2023-05-16T21:51:03.271Z,44.43
2023-05-16T21:53:30.257Z,44.55
2023-05-16T21:55:57.175Z,44.74
2023-05-16T21:58:24.732Z,45.02
2023-05-16T22:00:51.515Z,45.04
2023-05-16T22:03:20.460Z,45.12
2023-05-16T22:05:47.768Z,45.29
2023-05-16T22:08:15.543Z,45.52
2023-05-16T22:10:42.456Z,45.66
2023-05-16T22:13:09.699Z,45.95
2023-05-16T22:15:36.571Z,46.09
2023-05-16T22:18:03.705Z,46.28
2023-05-16T22:20:30.764Z,46.38
2023-05-16T22:22:57.618Z,46.45
2023-05-16T22:25:24.896Z,46.58
2023-05-16T22:27:51.701Z,46.65
2023-05-16T22:30:18.892Z,46.47
2023-05-16T22:32:46.515Z,46.62
2023-05-16T22:35:13.495Z,46.88
2023-05-16T22:37:40.577Z,46.64
2023-05-16T22:40:08.416Z,46.80
2023-05-16T22:42:35.886Z,46.65
2023-05-16T22:45:03.351Z,46.30
2023-05-16T22:47:30.725Z,45.90
2023-05-16T22:49:57.860Z,45.74
2023-05-16T22:52:24.893Z,45.65
2023-05-16T22:54:51.987Z,45.69
2023-05-16T22:57:19.088Z,45.50
2023-05-16T22:59:45.969Z,45.64
2023-05-16T23:02:12.742Z,45.70
2023-05-16T23:04:39.536Z,45.48
2023-05-16T23:07:06.579Z,45.47
2023-05-16T23:09:33.465Z,45.49
2023-05-16T23:12:01.003Z,45.39
2023-05-16T23:14:27.861Z,45.47
2023-05-16T23:16:54.751Z,45.50
2023-05-16T23:19:21.792Z,45.66
2023-05-16T23:21:48.834Z,45.76
2023-05-16T23:24:15.631Z,45.85
2023-05-16T23:26:42.561Z,45.87
2023-05-16T23:29:09.387Z,45.97
2023-05-16T23:31:36.151Z,45.93
2023-05-16T23:34:03.045Z,45.90
2023-05-16T23:36:30.567Z,46.08
2023-05-16T23:38:57.345Z,46.09
2023-05-16T23:41:24.106Z,46.13
2023-05-16T23:43:51.189Z,46.24
2023-05-16T23:46:18.033Z,46.17
2023-05-16T23:48:45.417Z,46.25
2023-05-16T23:51:12.381Z,46.33
2023-05-16T23:53:39.595Z,46.39
2023-05-16T23:56:06.489Z,46.45
2023-05-16T23:58:33.602Z,46.56
